createdAt,value
2022-09-12T00:01:13.766Z,76854.81
2022-09-12T00:03:40.231Z,76846.81
2022-09-12T00:06:11.516Z,76846.81
2022-09-12T00:08:38.051Z,76842.81
2022-09-12T00:11:05.213Z,76838.81
2022-09-12T00:13:31.560Z,76838.81
2022-09-12T00:15:57.864Z,76834.81
2022-09-12T00:18:24.193Z,76838.81
2022-09-12T00:20:50.554Z,76838.81
2022-09-12T00:23:16.890Z,76834.81
2022-09-12T00:25:47.619Z,76830.81
2022-09-12T00:28:15.016Z,76830.81
2022-09-12T00:30:42.314Z,76834.81
2022-09-12T00:33:08.928Z,76838.81
2022-09-12T00:35:35.318Z,76834.81
2022-09-12T00:38:01.647Z,76830.81
2022-09-12T00:40:28.621Z,76830.81
2022-09-12T00:42:54.942Z,76834.81
2022-09-12T00:45:24.475Z,76830.81
2022-09-12T00:47:50.863Z,76834.81
2022-09-12T00:50:17.933Z,76830.81
2022-09-12T00:52:49.806Z,76830.81
2022-09-12T00:55:19.690Z,76838.81
2022-09-12T00:57:58.004Z,76832.81
2022-09-12T01:00:25.575Z,76836.81
2022-09-12T01:03:04.040Z,76834.81
2022-09-12T01:05:31.446Z,76836.81
2022-09-12T01:07:57.806Z,76830.81
2022-09-12T01:10:24.155Z,76832.81
2022-09-12T01:12:50.878Z,76830.81
2022-09-12T01:15:17.218Z,76834.81
2022-09-12T01:17:55.933Z,76836.81
2022-09-12T01:20:41.146Z,76836.81
2022-09-12T01:23:09.262Z,76842.81
2022-09-12T01:25:38.691Z,76838.81
2022-09-12T01:28:21.766Z,76842.81
2022-09-12T01:30:48.104Z,76842.81
2022-09-12T01:33:23.747Z,76838.81
2022-09-12T01:35:53.076Z,76838.81
2022-09-12T01:38:31.867Z,76838.81
2022-09-12T01:41:16.791Z,76836.81
2022-09-12T01:44:01.960Z,76834.81
2022-09-12T01:46:47.196Z,76834.81
2022-09-12T01:49:13.567Z,76834.81
2022-09-12T01:51:42.322Z,76834.81
2022-09-12T01:54:16.043Z,76832.81
2022-09-12T01:56:43.778Z,76832.81
2022-09-12T01:59:25.423Z,76832.81
2022-09-12T02:01:56.753Z,76834.81
2022-09-12T02:04:31.058Z,76834.81
2022-09-12T02:07:02.975Z,76836.81
2022-09-12T02:09:33.936Z,76834.81
2022-09-12T02:12:01.371Z,76832.81
2022-09-12T02:14:29.769Z,76832.81
2022-09-12T02:17:02.545Z,76830.81
2022-09-12T02:19:31.410Z,76832.81
2022-09-12T02:21:59.194Z,76834.81
2022-09-12T02:24:30.212Z,76830.81
2022-09-12T02:27:03.715Z,76838.81
2022-09-12T02:29:30.282Z,76838.81
2022-09-12T02:32:04.675Z,76838.81
2022-09-12T02:34:39.271Z,76838.81
2022-09-12T02:37:11.250Z,76838.81
2022-09-12T02:39:38.844Z,76842.81
2022-09-12T02:42:06.824Z,76844.81
2022-09-12T02:44:33.732Z,76844.81
2022-09-12T02:47:12.799Z,76842.81
2022-09-12T02:49:39.150Z,76838.81
2022-09-12T02:52:05.592Z,76834.81
2022-09-12T02:54:32.317Z,76836.81
2022-09-12T02:56:58.721Z,76832.81
2022-09-12T02:59:25.915Z,76834.81
2022-09-12T03:02:01.373Z,76832.81
2022-09-12T03:04:48.459Z,76834.81
2022-09-12T03:07:23.971Z,76842.81
2022-09-12T03:10:10.595Z,76840.81
2022-09-12T03:12:48.211Z,76838.81
2022-09-12T03:15:27.195Z,76836.81
2022-09-12T03:18:03.589Z,76838.81
2022-09-12T03:20:42.535Z,76836.81
2022-09-12T03:23:24.425Z,76838.81
2022-09-12T03:26:09.600Z,76838.81
2022-09-12T03:28:37.327Z,76838.81
2022-09-12T03:31:12.062Z,76844.81
2022-09-12T03:33:38.403Z,76842.81
2022-09-12T03:36:04.838Z,76838.81
2022-09-12T03:38:31.356Z,76840.81
2022-09-12T03:40:57.862Z,76842.81
2022-09-12T03:43:24.188Z,76846.81
2022-09-12T03:45:52.178Z,76842.81
2022-09-12T03:48:18.569Z,76842.81
2022-09-12T03:50:44.904Z,76838.81
2022-09-12T03:53:14.070Z,76838.81
2022-09-12T03:55:43.370Z,76846.81
2022-09-12T03:58:09.840Z,76842.81
2022-09-12T04:00:36.210Z,76840.81
2022-09-12T04:03:02.564Z,76840.81
2022-09-12T04:05:28.914Z,76844.81
2022-09-12T04:07:55.303Z,76842.81
2022-09-12T04:10:22.654Z,76846.81
2022-09-12T04:12:48.978Z,76848.81
2022-09-12T04:15:15.385Z,76850.81
2022-09-12T04:17:41.725Z,76846.81
2022-09-12T04:20:08.187Z,76846.81
2022-09-12T04:22:34.574Z,76838.81
2022-09-12T04:25:01.100Z,76848.81
2022-09-12T04:27:27.586Z,76846.81
2022-09-12T04:29:55.327Z,76850.81
2022-09-12T04:32:22.431Z,76850.81
2022-09-12T04:34:48.856Z,76846.81
2022-09-12T04:37:15.764Z,76850.81
2022-09-12T04:39:42.105Z,76846.81
2022-09-12T04:42:08.474Z,76846.81
2022-09-12T04:44:34.907Z,76842.81
2022-09-12T04:47:01.303Z,76842.81
2022-09-12T04:49:27.696Z,76850.81
2022-09-12T04:51:55.145Z,76842.81
2022-09-12T04:54:21.502Z,76842.81
2022-09-12T04:56:48.954Z,76838.81
2022-09-12T04:59:16.168Z,76840.81
2022-09-12T05:01:42.894Z,76842.81
2022-09-12T05:04:13.134Z,76842.81
2022-09-12T05:06:40.407Z,76842.81
2022-09-12T05:09:07.872Z,76846.81
2022-09-12T05:12:02.492Z,76846.81
2022-09-12T05:14:22.655Z,76850.81
2022-09-12T05:16:49.960Z,76846.81
2022-09-12T05:19:16.647Z,76844.81
2022-09-12T05:21:43.005Z,76850.81
2022-09-12T05:24:10.387Z,76846.81
2022-09-12T05:26:36.778Z,76846.81
2022-09-12T05:29:04.457Z,76846.81
2022-09-12T05:31:30.791Z,76852.81
2022-09-12T05:33:57.696Z,76850.81
2022-09-12T05:36:25.699Z,76854.81
2022-09-12T05:38:52.439Z,76854.81
2022-09-12T05:41:24.656Z,76860.84
2022-09-12T05:43:55.562Z,76858.84
2022-09-12T05:46:23.338Z,76858.84
2022-09-12T05:48:55.126Z,76866.84
2022-09-12T05:51:23.542Z,76866.84
2022-09-12T05:53:52.730Z,76862.84
2022-09-12T05:56:20.468Z,76870.84
2022-09-12T05:58:48.372Z,76866.84
2022-09-12T06:01:16.141Z,76862.84
2022-09-12T06:03:44.634Z,76858.84
2022-09-12T06:06:13.745Z,76854.81
2022-09-12T06:08:44.158Z,76850.81
2022-09-12T06:11:14.811Z,76848.81
2022-09-12T06:13:42.205Z,76846.81
2022-09-12T06:16:09.773Z,76848.81
2022-09-12T06:18:37.015Z,76850.81
2022-09-12T06:21:07.528Z,76846.81
2022-09-12T06:23:34.178Z,76848.81
2022-09-12T06:26:00.564Z,76846.81
2022-09-12T06:28:27.703Z,76848.81
2022-09-12T06:30:54.099Z,76846.81
2022-09-12T06:33:20.855Z,76850.81
2022-09-12T06:35:47.333Z,76852.81
2022-09-12T06:38:13.659Z,76852.81
2022-09-12T06:40:44.613Z,76852.81
2022-09-12T06:43:12.424Z,76854.81
2022-09-12T06:45:38.792Z,76858.84
2022-09-12T06:48:05.766Z,76862.84
2022-09-12T06:50:32.108Z,76860.84
2022-09-12T06:52:58.466Z,76866.84
2022-09-12T06:55:27.724Z,76874.84
2022-09-12T06:57:55.448Z,76874.84
2022-09-12T07:00:21.893Z,76866.84
2022-09-12T07:02:48.470Z,76862.84
2022-09-12T07:05:15.210Z,76860.84
2022-09-12T07:07:41.603Z,76862.84
2022-09-12T07:10:08.211Z,76862.84
2022-09-12T07:12:34.535Z,76862.84
2022-09-12T07:15:01.201Z,76866.84
2022-09-12T07:17:27.571Z,76862.84
2022-09-12T07:19:53.911Z,76864.84
2022-09-12T07:22:20.335Z,76862.84
2022-09-12T07:24:46.791Z,76864.84
2022-09-12T07:27:13.195Z,76866.84
2022-09-12T07:29:39.589Z,76864.84
2022-09-12T07:32:06.606Z,76866.84
2022-09-12T07:34:33.427Z,76866.84
2022-09-12T07:36:59.823Z,76870.84
2022-09-12T07:39:26.146Z,76866.84
2022-09-12T07:41:52.455Z,76866.84
2022-09-12T07:44:18.784Z,76866.84
2022-09-12T07:46:45.207Z,76870.84
2022-09-12T07:49:12.173Z,76868.84
2022-09-12T07:51:38.511Z,76866.84
2022-09-12T07:54:07.973Z,76862.84
2022-09-12T07:56:38.690Z,76862.84
2022-09-12T07:59:05.610Z,76870.84
2022-09-12T08:01:32.094Z,76866.84
2022-09-12T08:03:59.098Z,76872.84
2022-09-12T08:06:26.359Z,76868.84
2022-09-12T08:08:54.047Z,76874.84
2022-09-12T08:11:21.119Z,76880.84
2022-09-12T08:13:51.703Z,76882.84
2022-09-12T08:16:21.837Z,76876.84
2022-09-12T08:18:48.851Z,76870.84
2022-09-12T08:21:19.851Z,76866.84
2022-09-12T08:23:46.521Z,76866.84
2022-09-12T08:26:13.342Z,76866.84
2022-09-12T08:28:43.381Z,76862.84
2022-09-12T08:31:14.413Z,76866.84
2022-09-12T08:33:40.799Z,76866.84
2022-09-12T08:36:09.718Z,76866.84
2022-09-12T08:38:36.915Z,76866.84
2022-09-12T08:41:06.322Z,76866.84
2022-09-12T08:43:35.968Z,76866.84
2022-09-12T08:46:08.300Z,76862.84
2022-09-12T08:48:35.477Z,76866.84
2022-09-12T08:51:01.912Z,76866.84
2022-09-12T08:53:29.298Z,76868.84
2022-09-12T08:55:59.821Z,76870.84
2022-09-12T08:58:28.137Z,76870.84
2022-09-12T09:00:54.544Z,76872.84
2022-09-12T09:03:36.639Z,76874.84
2022-09-12T09:06:19.899Z,76870.84
2022-09-12T09:09:15.584Z,76874.84
2022-09-12T09:11:55.706Z,76870.84
2022-09-12T09:14:49.727Z,76866.84
2022-09-12T09:17:22.163Z,76870.84
2022-09-12T09:19:57.078Z,76872.84
2022-09-12T09:22:31.328Z,76870.84
2022-09-12T09:25:02.479Z,76872.84
2022-09-12T09:27:46.903Z,76872.84
2022-09-12T09:30:15.714Z,76862.84
2022-09-12T09:32:42.935Z,76866.84
2022-09-12T09:35:15.267Z,76864.84
2022-09-12T09:37:43.121Z,76860.84
2022-09-12T09:40:22.922Z,76854.81
2022-09-12T09:43:01.953Z,76850.81
2022-09-12T09:45:29.741Z,76850.81
2022-09-12T09:47:58.246Z,76854.81
2022-09-12T09:50:24.762Z,76854.81
2022-09-12T09:52:52.477Z,76858.84
2022-09-12T09:55:21.878Z,76850.81
2022-09-12T09:57:48.452Z,76850.81
2022-09-12T10:00:37.104Z,76846.81
2022-09-12T10:03:13.474Z,76850.81
2022-09-12T10:05:51.759Z,76844.81
2022-09-12T10:08:26.267Z,76850.81
2022-09-12T10:11:03.638Z,76844.81
2022-09-12T10:13:30.039Z,76836.81
2022-09-12T10:15:58.301Z,76842.81
2022-09-12T10:18:42.289Z,76840.81
2022-09-12T10:21:14.016Z,76842.81
2022-09-12T10:23:41.449Z,76842.81
2022-09-12T10:26:12.571Z,76838.81
2022-09-12T10:28:40.632Z,76846.81
2022-09-12T10:31:08.561Z,76850.81
2022-09-12T10:33:42.213Z,76848.81
2022-09-12T10:36:08.944Z,76846.81
2022-09-12T10:38:35.658Z,76850.81
2022-09-12T10:41:11.687Z,76846.81
2022-09-12T10:43:39.208Z,76840.81
2022-09-12T10:46:14.827Z,76852.81
2022-09-12T10:48:41.653Z,76848.81
2022-09-12T10:51:15.453Z,76844.81
2022-09-12T10:53:43.733Z,76846.81
2022-09-12T10:56:12.900Z,76850.81
2022-09-12T10:58:39.239Z,76846.81
2022-09-12T11:01:24.347Z,76842.81
2022-09-12T11:03:50.735Z,76832.81
2022-09-12T11:06:20.734Z,76826.81
2022-09-12T11:09:03.078Z,76826.81
2022-09-12T11:11:48.122Z,76828.81
2022-09-12T11:14:40.127Z,76826.81
2022-09-12T11:17:18.794Z,76818.81
2022-09-12T11:19:54.940Z,76818.81
2022-09-12T11:22:46.051Z,76828.81
2022-09-12T11:25:15.448Z,76820.81
2022-09-12T11:27:48.828Z,76816.78
2022-09-12T11:30:17.163Z,76818.81
2022-09-12T11:32:49.904Z,76820.81
2022-09-12T11:35:21.725Z,76820.81
2022-09-12T11:37:53.976Z,76818.81
2022-09-12T11:40:32.657Z,76816.78
2022-09-12T11:43:03.506Z,76818.81
2022-09-12T11:45:33.242Z,76818.81
2022-09-12T11:48:03.947Z,76820.81
2022-09-12T11:50:31.322Z,76824.81
2022-09-12T11:53:24.195Z,76814.78
2022-09-12T11:55:54.295Z,76820.81
2022-09-12T11:58:22.347Z,76818.81
2022-09-12T12:00:51.258Z,76814.78
2022-09-12T12:03:20.518Z,76820.81
2022-09-12T12:05:54.347Z,76816.78
2022-09-12T12:08:22.032Z,76818.81
2022-09-12T12:11:14.639Z,76814.78
2022-09-12T12:13:41.079Z,76810.78
2022-09-12T12:16:21.366Z,76806.78
2022-09-12T12:18:53.626Z,76808.78
2022-09-12T12:21:29.353Z,76804.78
2022-09-12T12:24:07.927Z,76802.78
2022-09-12T12:26:43.398Z,76792.78
2022-09-12T12:29:13.514Z,76794.78
2022-09-12T12:31:59.198Z,76782.78
2022-09-12T12:34:28.515Z,76778.75
2022-09-12T12:36:55.076Z,76770.75
2022-09-12T12:39:33.702Z,76766.75
2022-09-12T12:42:00.724Z,76770.75
2022-09-12T12:44:45.311Z,76770.75
2022-09-12T12:47:18.886Z,76774.75
2022-09-12T12:50:08.563Z,76774.75
2022-09-12T12:52:45.993Z,76774.75
2022-09-12T12:55:17.375Z,76770.75
2022-09-12T12:57:50.875Z,76770.75
2022-09-12T13:00:20.341Z,76766.75
2022-09-12T13:02:52.427Z,76760.75
2022-09-12T13:05:21.486Z,76764.75
2022-09-12T13:07:53.359Z,76760.75
2022-09-12T13:10:29.759Z,76762.75
2022-09-12T13:12:58.283Z,76762.75
2022-09-12T13:15:36.748Z,76762.75
2022-09-12T13:18:05.726Z,76762.75
2022-09-12T13:20:34.004Z,76762.75
2022-09-12T13:23:00.443Z,76762.75
2022-09-12T13:25:31.193Z,76760.75
2022-09-12T13:28:12.546Z,76756.75
2022-09-12T13:30:48.881Z,76754.75
2022-09-12T13:33:20.921Z,76754.75
2022-09-12T13:35:50.085Z,76750.75
2022-09-12T13:38:23.550Z,76746.75
2022-09-12T13:41:28.391Z,76752.75
2022-09-12T13:43:54.858Z,76750.75
2022-09-12T13:46:26.875Z,76746.75
2022-09-12T13:48:53.792Z,76746.75
2022-09-12T13:51:25.140Z,76744.75
2022-09-12T13:53:52.671Z,76738.75
2022-09-12T13:56:19.739Z,76740.75
2022-09-12T13:58:57.498Z,76738.75
2022-09-12T14:01:45.953Z,76740.75
2022-09-12T14:04:38.710Z,76740.75
2022-09-12T14:07:11.443Z,76740.75
2022-09-12T14:09:39.546Z,76738.75
2022-09-12T14:12:17.965Z,76738.75
2022-09-12T14:14:47.902Z,76738.75
2022-09-12T14:17:21.829Z,76742.75
2022-09-12T14:19:50.071Z,76740.75
2022-09-12T14:22:18.070Z,76746.75
2022-09-12T14:24:51.655Z,76738.75
2022-09-12T14:27:30.332Z,76740.75
2022-09-12T14:30:07.527Z,76742.75
2022-09-12T14:32:33.923Z,76734.72
2022-09-12T14:35:14.039Z,76738.75
2022-09-12T14:37:40.447Z,76738.75
2022-09-12T14:40:18.946Z,76730.72
2022-09-12T14:42:46.825Z,76734.72
2022-09-12T14:45:17.921Z,76738.75
2022-09-12T14:47:48.895Z,76738.75
2022-09-12T14:50:16.834Z,76738.75
2022-09-12T14:52:43.886Z,76734.72
2022-09-12T14:55:16.255Z,76730.72
2022-09-12T14:57:44.607Z,76726.72
2022-09-12T15:00:11.399Z,76726.72
2022-09-12T15:02:37.759Z,76730.72
2022-09-12T15:05:04.065Z,76728.72
2022-09-12T15:07:41.210Z,76734.72
2022-09-12T15:10:16.879Z,76726.72
2022-09-12T15:12:43.191Z,76726.72
2022-09-12T15:15:14.529Z,76730.72
2022-09-12T15:17:40.937Z,76726.72
2022-09-12T15:20:07.607Z,76722.72
2022-09-12T15:22:34.823Z,76726.72
2022-09-12T15:25:01.192Z,76726.72
2022-09-12T15:27:27.563Z,76726.72
2022-09-12T15:29:53.872Z,76730.72
2022-09-12T15:32:24.623Z,76726.72
2022-09-12T15:34:51.014Z,76730.72
2022-09-12T15:37:17.988Z,76724.72
2022-09-12T15:39:46.708Z,76726.72
2022-09-12T15:42:14.482Z,76726.72
2022-09-12T15:44:40.905Z,76722.72
2022-09-12T15:47:10.055Z,76726.72
2022-09-12T15:49:36.525Z,76722.72
2022-09-12T15:52:02.911Z,76726.72
2022-09-12T15:54:29.211Z,76730.72
2022-09-12T15:56:55.627Z,76730.72
2022-09-12T15:59:21.975Z,76726.72
2022-09-12T16:01:49.209Z,76724.72
2022-09-12T16:04:23.613Z,76722.72
2022-09-12T16:06:50.705Z,76722.72
2022-09-12T16:09:17.331Z,76722.72
2022-09-12T16:11:45.086Z,76722.72
2022-09-12T16:14:14.275Z,76718.72
2022-09-12T16:16:41.311Z,76710.72
2022-09-12T16:19:09.200Z,76706.72
2022-09-12T16:21:36.150Z,76702.72
2022-09-12T16:24:02.590Z,76706.72
2022-09-12T16:26:28.968Z,76706.72
2022-09-12T16:28:56.384Z,76702.72
2022-09-12T16:31:23.157Z,76706.72
2022-09-12T16:33:49.671Z,76698.69
2022-09-12T16:36:17.595Z,76702.72
2022-09-12T16:38:45.361Z,76702.72
2022-09-12T16:41:12.619Z,76702.72
2022-09-12T16:43:39.035Z,76702.72
2022-09-12T16:46:05.484Z,76702.72
2022-09-12T16:48:32.730Z,76702.72
2022-09-12T16:51:01.473Z,76700.72
2022-09-12T16:53:31.378Z,76696.69
2022-09-12T16:55:57.831Z,76698.69
2022-09-12T16:58:24.205Z,76696.69
2022-09-12T17:00:59.483Z,76692.69
2022-09-12T17:03:25.821Z,76690.69
2022-09-12T17:05:59.355Z,76690.69
2022-09-12T17:08:25.672Z,76682.69
2022-09-12T17:10:52.120Z,76690.69
2022-09-12T17:13:18.451Z,76688.69
2022-09-12T17:15:45.697Z,76690.69
2022-09-12T17:18:12.057Z,76690.69
2022-09-12T17:20:38.412Z,76688.69
2022-09-12T17:23:09.109Z,76690.69
2022-09-12T17:25:36.327Z,76686.69
2022-09-12T17:28:05.572Z,76690.69
2022-09-12T17:30:35.336Z,76686.69
2022-09-12T17:33:01.667Z,76690.69
2022-09-12T17:35:28.503Z,76690.69
2022-09-12T17:37:54.839Z,76686.69
2022-09-12T17:40:32.618Z,76686.69
2022-09-12T17:43:07.555Z,76680.69
2022-09-12T17:45:33.914Z,76682.69
2022-09-12T17:48:00.970Z,76682.69
2022-09-12T17:50:31.720Z,76678.69
2022-09-12T17:52:58.435Z,76678.69
2022-09-12T17:55:24.798Z,76670.69
2022-09-12T17:57:51.143Z,76674.69
2022-09-12T18:00:17.575Z,76672.69
2022-09-12T18:02:46.760Z,76676.69
2022-09-12T18:05:14.131Z,76676.69
2022-09-12T18:07:44.032Z,76678.69
2022-09-12T18:10:12.103Z,76678.69
2022-09-12T18:12:38.439Z,76678.69
2022-09-12T18:15:05.187Z,76680.69
2022-09-12T18:17:31.679Z,76682.69
2022-09-12T18:19:58.063Z,76674.69
2022-09-12T18:22:24.407Z,76678.69
2022-09-12T18:24:50.771Z,76678.69
2022-09-12T18:27:17.151Z,76674.69
2022-09-12T18:29:51.857Z,76676.69
2022-09-12T18:32:25.413Z,76674.69
2022-09-12T18:34:52.601Z,76682.69
2022-09-12T18:37:18.918Z,76678.69
2022-09-12T18:39:45.360Z,76678.69
2022-09-12T18:42:11.712Z,76684.69
2022-09-12T18:44:38.022Z,76682.69
2022-09-12T18:47:04.489Z,76682.69
2022-09-12T18:49:30.904Z,76684.69
2022-09-12T18:51:57.319Z,76684.69
2022-09-12T18:54:23.659Z,76686.69
2022-09-12T18:56:50.063Z,76684.69
2022-09-12T18:59:16.643Z,76680.69
2022-09-12T19:01:43.334Z,76682.69
2022-09-12T19:04:10.941Z,76682.69
2022-09-12T19:06:38.463Z,76682.69
2022-09-12T19:09:08.050Z,76678.69
2022-09-12T19:11:35.346Z,76682.69
2022-09-12T19:14:02.123Z,76682.69
2022-09-12T19:16:28.751Z,76680.69
2022-09-12T19:18:56.074Z,76674.69
2022-09-12T19:21:24.557Z,76670.69
2022-09-12T19:23:51.742Z,76670.69
2022-09-12T19:26:18.848Z,76670.69
2022-09-12T19:28:45.611Z,76668.69
2022-09-12T19:31:13.314Z,76662.69
2022-09-12T19:33:39.931Z,76662.69
2022-09-12T19:36:21.938Z,76662.69
2022-09-12T19:38:54.275Z,76670.69
2022-09-12T19:41:20.766Z,76666.69
2022-09-12T19:43:47.441Z,76666.69
2022-09-12T19:46:17.710Z,76670.69
2022-09-12T19:48:45.232Z,76664.69
2022-09-12T19:51:11.934Z,76670.69
2022-09-12T19:53:38.416Z,76666.69
2022-09-12T19:56:05.591Z,76658.69
2022-09-12T19:58:32.886Z,76658.69
2022-09-12T20:01:09.485Z,76654.66
2022-09-12T20:03:35.931Z,76662.69
2022-09-12T20:06:06.815Z,76658.69
2022-09-12T20:08:33.807Z,76664.69
2022-09-12T20:11:00.974Z,76658.69
2022-09-12T20:13:27.876Z,76662.69
2022-09-12T20:15:54.222Z,76660.69
2022-09-12T20:18:20.906Z,76656.69
2022-09-12T20:20:47.210Z,76658.69
2022-09-12T20:23:13.571Z,76662.69
2022-09-12T20:25:39.906Z,76660.69
2022-09-12T20:28:06.236Z,76656.69
2022-09-12T20:30:32.543Z,76654.66
2022-09-12T20:32:58.933Z,76654.66
2022-09-12T20:35:25.867Z,76654.66
2022-09-12T20:37:52.199Z,76646.66
2022-09-12T20:40:18.625Z,76640.66
2022-09-12T20:42:45.110Z,76634.66
2022-09-12T20:45:11.492Z,76638.66
2022-09-12T20:47:37.837Z,76632.66
2022-09-12T20:50:04.406Z,76630.66
2022-09-12T20:52:31.502Z,76630.66
2022-09-12T20:54:57.852Z,76630.66
2022-09-12T20:57:24.286Z,76626.66
2022-09-12T20:59:50.794Z,76626.66
2022-09-12T21:02:17.457Z,76630.66
2022-09-12T21:04:43.994Z,76628.66
2022-09-12T21:07:10.382Z,76630.66
2022-09-12T21:09:36.828Z,76628.66
2022-09-12T21:12:03.312Z,76630.66
2022-09-12T21:14:29.680Z,76624.66
2022-09-12T21:16:56.014Z,76624.66
2022-09-12T21:19:22.355Z,76630.66
2022-09-12T21:21:48.691Z,76620.66
2022-09-12T21:24:15.157Z,76622.66
2022-09-12T21:26:41.490Z,76626.66
2022-09-12T21:29:08.340Z,76626.66
2022-09-12T21:31:34.741Z,76628.66
2022-09-12T21:34:01.140Z,76626.66
2022-09-12T21:36:27.526Z,76626.66
2022-09-12T21:38:56.890Z,76622.66
2022-09-12T21:41:23.332Z,76622.66
2022-09-12T21:43:49.897Z,76622.66
2022-09-12T21:46:16.274Z,76622.66
2022-09-12T21:48:42.800Z,76626.66
2022-09-12T21:51:09.127Z,76620.66
2022-09-12T21:53:35.939Z,76626.66
2022-09-12T21:56:03.583Z,76616.66
2022-09-12T21:58:29.992Z,76618.66
2022-09-12T22:00:56.489Z,76618.66
2022-09-12T22:03:22.935Z,76614.66
2022-09-12T22:05:59.600Z,76614.66
2022-09-12T22:08:26.009Z,76618.66
2022-09-12T22:10:52.427Z,76612.66
2022-09-12T22:13:18.737Z,76616.66
2022-09-12T22:15:49.904Z,76612.66
2022-09-12T22:18:16.338Z,76610.63
2022-09-12T22:20:42.669Z,76610.63
2022-09-12T22:23:30.361Z,76606.63
2022-09-12T22:25:56.875Z,76612.66
2022-09-12T22:28:23.207Z,76606.63
2022-09-12T22:30:49.581Z,76610.63
2022-09-12T22:33:15.958Z,76604.63
2022-09-12T22:35:42.509Z,76598.63
2022-09-12T22:38:09.135Z,76604.63
2022-09-12T22:40:35.484Z,76598.63
2022-09-12T22:43:01.836Z,76590.63
2022-09-12T22:45:28.226Z,76592.63
2022-09-12T22:47:55.700Z,76590.63
2022-09-12T22:50:24.539Z,76588.63
2022-09-12T22:52:52.167Z,76594.63
2022-09-12T22:55:18.503Z,76592.63
2022-09-12T22:57:44.836Z,76594.63
2022-09-12T23:00:11.624Z,76582.63
2022-09-12T23:02:38.164Z,76582.63
2022-09-12T23:05:04.688Z,76578.63
2022-09-12T23:07:30.998Z,76572.63
2022-09-12T23:09:57.302Z,76570.59
2022-09-12T23:12:23.655Z,76564.59
2022-09-12T23:14:49.999Z,76558.59
2022-09-12T23:17:16.321Z,76550.59
2022-09-12T23:19:42.639Z,76550.59
2022-09-12T23:22:08.962Z,76550.59
2022-09-12T23:24:35.273Z,76548.59
2022-09-12T23:27:01.641Z,76548.59
2022-09-12T23:29:27.979Z,76546.59
2022-09-12T23:31:55.455Z,76542.59
2022-09-12T23:34:21.784Z,76540.59
2022-09-12T23:36:48.082Z,76544.59
2022-09-12T23:39:14.417Z,76546.59
2022-09-12T23:41:40.804Z,76544.59
2022-09-12T23:44:07.227Z,76542.59
2022-09-12T23:46:33.642Z,76542.59
2022-09-12T23:48:59.982Z,76542.59
2022-09-12T23:51:26.591Z,76542.59
2022-09-12T23:53:52.894Z,76542.59
2022-09-12T23:56:19.290Z,76534.59
2022-09-12T23:58:45.624Z,76530.59
